createdAt,value
2023-03-01T00:01:08.298Z,-0.98
2023-03-01T00:03:35.089Z,-0.76
2023-03-01T00:06:02.819Z,-0.89
2023-03-01T00:08:30.585Z,-0.96
2023-03-01T00:11:07.804Z,-0.95
2023-03-01T00:13:35.101Z,-1.11
2023-03-01T00:16:10.633Z,-1.27
2023-03-01T00:18:36.837Z,-0.88
2023-03-01T00:21:03.510Z,-0.41
2023-03-01T00:23:29.908Z,-0.52
2023-03-01T00:25:56.682Z,-0.87
2023-03-01T00:28:22.972Z,-0.38
2023-03-01T00:30:49.498Z,-0.29
2023-03-01T00:33:15.708Z,-0.19
2023-03-01T00:35:42.626Z,-0.64
2023-03-01T00:38:09.153Z,-0.94
2023-03-01T00:40:36.670Z,-1.08
2023-03-01T00:43:03.845Z,-1.18
2023-03-01T00:45:31.485Z,-1.10
2023-03-01T00:47:58.430Z,-1.28
2023-03-01T00:50:25.341Z,-1.47
2023-03-01T00:52:55.804Z,-1.45
2023-03-01T00:55:22.772Z,-1.67
2023-03-01T00:57:49.313Z,-1.70
2023-03-01T01:00:16.404Z,-1.16
2023-03-01T01:02:42.719Z,-1.36
2023-03-01T01:05:09.447Z,-1.55
2023-03-01T01:07:35.921Z,-1.24
2023-03-01T01:10:02.912Z,-1.52
2023-03-01T01:12:29.265Z,-1.44
2023-03-01T01:14:56.725Z,-1.53
2023-03-01T01:17:22.893Z,-1.68
2023-03-01T01:19:49.564Z,-1.77
2023-03-01T01:22:15.769Z,-1.82
2023-03-01T01:24:43.282Z,-1.84
2023-03-01T01:27:09.661Z,-1.89
2023-03-01T01:29:36.199Z,-1.85
2023-03-01T01:32:02.396Z,-1.44
2023-03-01T01:34:28.885Z,-1.35
2023-03-01T01:36:55.137Z,-1.48
2023-03-01T01:39:22.649Z,-1.05
2023-03-01T01:41:49.146Z,-0.90
2023-03-01T01:44:27.376Z,-1.09
2023-03-01T01:47:04.817Z,-1.16
2023-03-01T01:49:37.808Z,-1.52
2023-03-01T01:52:13.400Z,-1.66
2023-03-01T01:54:57.729Z,-1.86
2023-03-01T01:57:49.501Z,-1.74
2023-03-01T02:00:22.242Z,-1.89
2023-03-01T02:02:52.372Z,-1.86
2023-03-01T02:05:35.318Z,-1.89
2023-03-01T02:08:01.808Z,-2.02
2023-03-01T02:10:29.384Z,-2.07
2023-03-01T02:12:58.840Z,-2.05
2023-03-01T02:15:26.825Z,-2.09
2023-03-01T02:17:54.896Z,-2.03
2023-03-01T02:20:32.386Z,-1.51
2023-03-01T02:22:58.842Z,-1.89
2023-03-01T02:25:32.397Z,-1.94
2023-03-01T02:28:08.378Z,-2.04
2023-03-01T02:30:35.162Z,-1.98
2023-03-01T02:33:03.372Z,-1.39
2023-03-01T02:35:34.817Z,-1.63
2023-03-01T02:38:03.722Z,-1.91
2023-03-01T02:40:31.704Z,-1.93
2023-03-01T02:42:59.211Z,-1.70
2023-03-01T02:45:27.557Z,-1.82
2023-03-01T02:47:55.576Z,-1.93
2023-03-01T02:50:31.256Z,-2.13
2023-03-01T02:53:20.298Z,-2.30
2023-03-01T02:55:47.007Z,-2.14
2023-03-01T02:58:13.573Z,-2.03
2023-03-01T03:00:47.138Z,-2.02
2023-03-01T03:03:20.744Z,-2.25
2023-03-01T03:05:48.640Z,-2.31
2023-03-01T03:08:24.024Z,-2.36
2023-03-01T03:10:51.792Z,-2.12
2023-03-01T03:13:19.360Z,-2.13
2023-03-01T03:15:46.137Z,-2.04
2023-03-01T03:18:15.891Z,-1.92
2023-03-01T03:20:44.106Z,-2.07
2023-03-01T03:23:10.961Z,-2.23
2023-03-01T03:25:37.995Z,-2.18
2023-03-01T03:28:09.742Z,-2.24
2023-03-01T03:30:41.650Z,-2.12
2023-03-01T03:33:12.641Z,-1.65
2023-03-01T03:35:49.393Z,-1.55
2023-03-01T03:38:19.360Z,-1.60
2023-03-01T03:40:48.551Z,-1.99
2023-03-01T03:43:21.195Z,-1.80
2023-03-01T03:45:50.539Z,-1.70
2023-03-01T03:48:17.736Z,-1.77
2023-03-01T03:50:49.759Z,-1.88
2023-03-01T03:53:15.970Z,-2.15
2023-03-01T03:55:44.741Z,-2.15
2023-03-01T03:58:11.701Z,-2.16
2023-03-01T04:00:40.911Z,-2.31
2023-03-01T04:03:08.282Z,-2.46
2023-03-01T04:05:36.546Z,-2.36
2023-03-01T04:08:03.536Z,-2.51
2023-03-01T04:10:33.188Z,-2.25
2023-03-01T04:12:59.483Z,-2.36
2023-03-01T04:15:27.257Z,-2.27
2023-03-01T04:17:54.842Z,-2.24
2023-03-01T04:20:27.207Z,-2.28
2023-03-01T04:22:57.735Z,-2.40
2023-03-01T04:25:24.458Z,-2.44
2023-03-01T04:27:52.410Z,-2.15
2023-03-01T04:30:19.016Z,-2.35
2023-03-01T04:32:45.238Z,-2.48
2023-03-01T04:35:11.739Z,-2.51
2023-03-01T04:37:37.878Z,-2.56
2023-03-01T04:40:13.170Z,-2.48
2023-03-01T04:42:39.386Z,-1.86
2023-03-01T04:45:13.184Z,-1.70
2023-03-01T04:47:44.484Z,-1.86
2023-03-01T04:50:13.127Z,-1.98
2023-03-01T04:52:39.301Z,-2.15
2023-03-01T04:55:06.528Z,-2.19
2023-03-01T04:57:33.101Z,-2.42
2023-03-01T05:00:02.076Z,-2.47
2023-03-01T05:02:29.810Z,-2.40
2023-03-01T05:04:57.850Z,-2.51
2023-03-01T05:07:25.051Z,-2.67
2023-03-01T05:09:53.099Z,-2.52
2023-03-01T05:12:20.825Z,-2.67
2023-03-01T05:14:47.320Z,-2.74
2023-03-01T05:17:13.433Z,-2.77
2023-03-01T05:19:42.851Z,-2.74
2023-03-01T05:22:09.035Z,-2.76
2023-03-01T05:24:36.224Z,-2.46
2023-03-01T05:27:03.355Z,-2.41
2023-03-01T05:29:31.753Z,-2.62
2023-03-01T05:32:01.067Z,-2.41
2023-03-01T05:34:30.729Z,-2.01
2023-03-01T05:36:57.356Z,-2.18
2023-03-01T05:39:26.428Z,-2.46
2023-03-01T05:41:54.984Z,-2.18
2023-03-01T05:44:22.146Z,-2.28
2023-03-01T05:46:49.731Z,-2.48
2023-03-01T05:49:16.920Z,-2.27
2023-03-01T05:51:48.434Z,-2.22
2023-03-01T05:54:15.087Z,-1.75
2023-03-01T05:56:41.456Z,-1.92
2023-03-01T05:59:08.736Z,-1.94
2023-03-01T06:01:35.906Z,-2.12
2023-03-01T06:04:03.314Z,-2.22
2023-03-01T06:06:30.689Z,-2.25
2023-03-01T06:09:00.426Z,-2.29
2023-03-01T06:11:26.836Z,-2.22
2023-03-01T06:13:53.577Z,-1.89
2023-03-01T06:16:19.769Z,-1.51
2023-03-01T06:18:46.523Z,-1.61
2023-03-01T06:21:13.076Z,-1.59
2023-03-01T06:23:39.832Z,-1.57
2023-03-01T06:26:08.010Z,-1.54
2023-03-01T06:28:35.490Z,-1.41
2023-03-01T06:31:02.107Z,-0.96
2023-03-01T06:33:28.727Z,-0.99
2023-03-01T06:35:56.640Z,-0.93
2023-03-01T06:38:24.567Z,-0.62
2023-03-01T06:40:55.351Z,-0.44
2023-03-01T06:43:22.399Z,-0.49
2023-03-01T06:45:48.662Z,-0.54
2023-03-01T06:48:15.532Z,-0.61
2023-03-01T06:50:41.832Z,-0.65
2023-03-01T06:53:08.390Z,-0.73
2023-03-01T06:55:34.574Z,-0.69
2023-03-01T06:58:02.755Z,-0.65
2023-03-01T07:00:29.316Z,-0.63
2023-03-01T07:02:59.191Z,-0.49
2023-03-01T07:05:25.534Z,-0.13
2023-03-01T07:07:54.053Z,-0.45
2023-03-01T07:10:20.237Z,-0.29
2023-03-01T07:12:47.114Z,-0.31
2023-03-01T07:15:15.244Z,-0.22
2023-03-01T07:17:41.805Z,-0.18
2023-03-01T07:20:08.943Z,0.21
2023-03-01T07:22:35.563Z,0.24
2023-03-01T07:25:01.794Z,0.41
2023-03-01T07:27:28.417Z,0.70
2023-03-01T07:29:54.545Z,0.72
2023-03-01T07:32:21.156Z,0.77
2023-03-01T07:34:47.335Z,0.89
2023-03-01T07:37:14.179Z,0.97
2023-03-01T07:39:41.192Z,1.12
2023-03-01T07:42:08.361Z,1.06
2023-03-01T07:44:37.909Z,1.13
2023-03-01T07:47:05.404Z,1.19
2023-03-01T07:49:31.798Z,1.27
2023-03-01T07:51:58.801Z,1.45
2023-03-01T07:54:26.482Z,1.53
2023-03-01T07:56:55.133Z,1.58
2023-03-01T07:59:21.445Z,1.61
2023-03-01T08:01:48.243Z,1.67
2023-03-01T08:04:14.752Z,1.79
2023-03-01T08:06:41.567Z,1.77
2023-03-01T08:09:08.869Z,1.96
2023-03-01T08:11:35.540Z,2.11
2023-03-01T08:14:01.895Z,2.12
2023-03-01T08:16:28.999Z,2.08
2023-03-01T08:18:57.058Z,2.23
2023-03-01T08:21:23.973Z,2.32
2023-03-01T08:23:50.273Z,2.39
2023-03-01T08:26:19.624Z,2.45
2023-03-01T08:28:47.962Z,2.48
2023-03-01T08:31:20.687Z,2.67
2023-03-01T08:33:55.286Z,2.71
2023-03-01T08:36:26.813Z,2.86
2023-03-01T08:38:53.619Z,2.95
2023-03-01T08:41:20.496Z,3.03
2023-03-01T08:43:46.821Z,3.13
2023-03-01T08:46:13.731Z,3.23
2023-03-01T08:48:43.268Z,3.32
2023-03-01T08:51:16.542Z,3.40
2023-03-01T08:53:43.862Z,3.57
2023-03-01T08:56:11.348Z,3.70
2023-03-01T08:58:38.198Z,3.79
2023-03-01T09:01:09.671Z,3.89
2023-03-01T09:03:36.901Z,4.05
2023-03-01T09:06:04.906Z,4.13
2023-03-01T09:08:35.421Z,4.23
2023-03-01T09:11:03.925Z,4.34
2023-03-01T09:13:31.537Z,4.43
2023-03-01T09:16:04.072Z,4.51
2023-03-01T09:18:31.461Z,4.60
2023-03-01T09:21:07.633Z,4.68
2023-03-01T09:23:36.909Z,4.58
2023-03-01T09:26:04.078Z,4.62
2023-03-01T09:28:31.073Z,4.73
2023-03-01T09:31:02.280Z,4.80
2023-03-01T09:33:31.472Z,4.88
2023-03-01T09:36:00.207Z,4.86
2023-03-01T09:38:27.120Z,4.85
2023-03-01T09:40:53.850Z,4.95
2023-03-01T09:43:29.761Z,4.96
2023-03-01T09:46:03.784Z,5.00
2023-03-01T09:48:37.770Z,5.13
2023-03-01T09:51:13.094Z,5.23
2023-03-01T09:53:40.315Z,5.39
2023-03-01T09:56:33.535Z,5.49
2023-03-01T09:59:10.871Z,5.57
2023-03-01T10:02:00.694Z,5.36
2023-03-01T10:04:33.625Z,5.45
2023-03-01T10:07:10.135Z,5.54
2023-03-01T10:09:45.647Z,5.58
2023-03-01T10:12:23.681Z,5.68
2023-03-01T10:15:04.512Z,5.54
2023-03-01T10:17:38.002Z,5.67
2023-03-01T10:20:24.423Z,5.79
2023-03-01T10:22:52.794Z,5.98
2023-03-01T10:25:52.770Z,5.88
2023-03-01T10:28:42.513Z,5.93
2023-03-01T10:31:28.282Z,5.85
2023-03-01T10:33:57.362Z,5.77
2023-03-01T10:36:24.197Z,5.80
2023-03-01T10:38:57.299Z,5.86
2023-03-01T10:41:26.449Z,6.14
2023-03-01T10:43:54.554Z,6.24
2023-03-01T10:46:37.841Z,6.23
2023-03-01T10:49:18.715Z,6.30
2023-03-01T10:51:48.190Z,6.45
2023-03-01T10:54:19.955Z,6.55
2023-03-01T10:56:49.610Z,6.66
2023-03-01T10:59:38.009Z,6.60
2023-03-01T11:02:41.801Z,6.64
2023-03-01T11:05:15.444Z,6.70
2023-03-01T11:07:59.310Z,6.77
2023-03-01T11:10:33.935Z,6.75
2023-03-01T11:13:14.982Z,6.87
2023-03-01T11:15:42.593Z,6.88
2023-03-01T11:18:20.933Z,6.87
2023-03-01T11:20:51.270Z,6.91
2023-03-01T11:23:18.053Z,6.86
2023-03-01T11:26:11.430Z,6.69
2023-03-01T11:28:41.362Z,6.95
2023-03-01T11:31:15.183Z,6.70
2023-03-01T11:33:50.559Z,6.90
2023-03-01T11:36:40.837Z,7.04
2023-03-01T11:39:25.535Z,7.14
2023-03-01T11:42:22.907Z,7.25
2023-03-01T11:44:54.779Z,7.36
2023-03-01T11:47:46.560Z,7.47
2023-03-01T11:50:46.133Z,7.52
2023-03-01T11:53:22.018Z,7.45
2023-03-01T11:56:06.889Z,7.51
2023-03-01T11:58:39.465Z,7.57
2023-03-01T12:01:13.774Z,7.65
2023-03-01T12:03:56.113Z,7.66
2023-03-01T12:06:34.573Z,7.70
2023-03-01T12:09:27.696Z,7.69
2023-03-01T12:12:17.809Z,7.64
2023-03-01T12:14:44.767Z,7.80
2023-03-01T12:17:58.188Z,7.80
2023-03-01T12:20:28.746Z,7.85
2023-03-01T12:23:22.931Z,7.93
2023-03-01T12:25:55.529Z,7.92
2023-03-01T12:28:30.851Z,7.93
2023-03-01T12:31:12.638Z,7.98
2023-03-01T12:34:10.985Z,7.88
2023-03-01T12:36:49.690Z,8.00
2023-03-01T12:39:53.149Z,8.05
2023-03-01T12:42:30.160Z,7.99
2023-03-01T12:45:20.916Z,7.80
2023-03-01T12:48:17.937Z,7.70
2023-03-01T12:50:51.641Z,8.01
2023-03-01T12:53:25.986Z,8.02
2023-03-01T12:55:56.017Z,8.09
2023-03-01T12:58:47.282Z,8.28
2023-03-01T13:01:43.334Z,8.25
2023-03-01T13:04:27.242Z,8.11
2023-03-01T13:07:16.103Z,8.19
2023-03-01T13:10:04.336Z,7.94
2023-03-01T13:12:42.805Z,8.20
2023-03-01T13:15:39.999Z,7.87
2023-03-01T13:18:15.453Z,7.80
2023-03-01T13:20:42.233Z,7.83
2023-03-01T13:23:12.848Z,7.90
2023-03-01T13:26:00.700Z,8.18
2023-03-01T13:28:46.326Z,8.25
2023-03-01T13:31:16.369Z,8.18
2023-03-01T13:33:49.537Z,7.97
2023-03-01T13:36:28.361Z,8.08
2023-03-01T13:38:57.956Z,8.17
2023-03-01T13:41:50.350Z,8.41
2023-03-01T13:44:38.997Z,8.43
2023-03-01T13:47:14.152Z,8.27
2023-03-01T13:49:47.089Z,8.18
2023-03-01T13:52:59.556Z,7.94
2023-03-01T13:55:43.191Z,7.90
2023-03-01T13:58:21.344Z,7.86
2023-03-01T14:00:48.078Z,8.02
2023-03-01T14:03:16.203Z,8.18
2023-03-01T14:06:11.206Z,8.19
2023-03-01T14:08:43.658Z,8.20
2023-03-01T14:11:39.513Z,8.31
2023-03-01T14:14:40.823Z,8.34
2023-03-01T14:17:19.313Z,8.05
2023-03-01T14:19:48.668Z,7.87
2023-03-01T14:22:30.558Z,8.04
2023-03-01T14:25:05.263Z,8.10
2023-03-01T14:27:42.425Z,8.09
2023-03-01T14:30:22.271Z,8.10
2023-03-01T14:32:59.192Z,8.13
2023-03-01T14:35:32.045Z,8.00
2023-03-01T14:37:58.688Z,7.86
2023-03-01T14:40:34.747Z,7.94
2023-03-01T14:43:08.577Z,7.84
2023-03-01T14:45:35.715Z,7.90
2023-03-01T14:48:05.293Z,7.84
2023-03-01T14:50:35.386Z,7.70
2023-03-01T14:53:04.884Z,7.84
2023-03-01T14:55:41.052Z,7.78
2023-03-01T14:58:15.137Z,7.73
2023-03-01T15:00:53.149Z,7.74
2023-03-01T15:03:41.818Z,7.78
2023-03-01T15:06:09.374Z,7.66
2023-03-01T15:08:37.346Z,7.61
2023-03-01T15:11:14.373Z,7.60
2023-03-01T15:13:41.274Z,7.60
2023-03-01T15:16:17.147Z,7.54
2023-03-01T15:18:56.932Z,7.43
2023-03-01T15:21:28.087Z,7.41
2023-03-01T15:24:06.778Z,7.39
2023-03-01T15:26:40.114Z,7.39
2023-03-01T15:29:33.694Z,7.20
2023-03-01T15:32:04.861Z,7.20
2023-03-01T15:34:40.620Z,7.22
2023-03-01T15:37:50.244Z,7.17
2023-03-01T15:40:33.321Z,7.13
2023-03-01T15:43:06.655Z,7.12
2023-03-01T15:45:38.088Z,7.05
2023-03-01T15:48:15.626Z,7.03
2023-03-01T15:50:44.108Z,6.95
2023-03-01T15:53:15.488Z,6.91
2023-03-01T15:55:42.807Z,6.92
2023-03-01T15:58:18.989Z,6.86
2023-03-01T16:00:59.750Z,6.81
2023-03-01T16:03:28.430Z,6.80
2023-03-01T16:05:57.896Z,6.75
2023-03-01T16:08:24.835Z,6.73
2023-03-01T16:10:51.751Z,6.69
2023-03-01T16:13:18.402Z,6.65
2023-03-01T16:15:45.030Z,6.47
2023-03-01T16:18:12.127Z,6.38
2023-03-01T16:20:38.618Z,6.28
2023-03-01T16:23:07.529Z,6.19
2023-03-01T16:25:35.223Z,6.06
2023-03-01T16:28:05.190Z,5.98
2023-03-01T16:30:32.126Z,5.93
2023-03-01T16:32:59.072Z,5.85
2023-03-01T16:35:25.766Z,5.69
2023-03-01T16:37:54.367Z,5.62
2023-03-01T16:40:26.432Z,5.57
2023-03-01T16:43:03.515Z,5.36
2023-03-01T16:45:40.814Z,5.25
2023-03-01T16:48:07.576Z,5.39
2023-03-01T16:50:33.805Z,5.21
2023-03-01T16:53:00.512Z,5.02
2023-03-01T16:55:27.093Z,4.85
2023-03-01T16:57:53.840Z,4.77
2023-03-01T17:00:21.138Z,4.54
2023-03-01T17:02:52.353Z,4.43
2023-03-01T17:05:21.304Z,4.44
2023-03-01T17:07:48.333Z,4.34
2023-03-01T17:10:14.982Z,4.26
2023-03-01T17:12:41.822Z,4.32
2023-03-01T17:15:09.960Z,4.24
2023-03-01T17:17:36.675Z,4.10
2023-03-01T17:20:05.107Z,4.02
2023-03-01T17:22:36.748Z,3.98
2023-03-01T17:25:03.783Z,4.09
2023-03-01T17:27:35.738Z,4.13
2023-03-01T17:30:03.749Z,4.05
2023-03-01T17:32:30.348Z,4.08
2023-03-01T17:34:56.839Z,3.93
2023-03-01T17:37:24.100Z,3.84
2023-03-01T17:39:50.347Z,3.66
2023-03-01T17:42:17.029Z,3.71
2023-03-01T17:44:43.920Z,3.65
2023-03-01T17:47:11.089Z,3.75
2023-03-01T17:49:37.501Z,3.52
2023-03-01T17:52:04.357Z,3.55
2023-03-01T17:54:32.587Z,3.55
2023-03-01T17:56:59.892Z,3.46
2023-03-01T17:59:30.545Z,3.55
2023-03-01T18:01:57.857Z,3.32
2023-03-01T18:04:24.344Z,3.16
2023-03-01T18:06:51.212Z,3.09
2023-03-01T18:09:17.653Z,3.26
2023-03-01T18:11:46.804Z,3.22
2023-03-01T18:14:14.321Z,3.10
2023-03-01T18:16:41.311Z,3.00
2023-03-01T18:19:07.819Z,2.84
2023-03-01T18:21:34.907Z,2.90
2023-03-01T18:24:01.467Z,2.77
2023-03-01T18:26:28.643Z,2.74
2023-03-01T18:28:57.709Z,2.74
2023-03-01T18:31:25.334Z,2.68
2023-03-01T18:33:56.634Z,2.93
2023-03-01T18:36:32.582Z,3.04
2023-03-01T18:39:01.789Z,3.20
2023-03-01T18:41:29.940Z,3.21
2023-03-01T18:43:56.902Z,3.23
2023-03-01T18:46:24.538Z,3.11
2023-03-01T18:48:55.199Z,2.98
2023-03-01T18:51:25.510Z,3.07
2023-03-01T18:53:52.271Z,3.02
2023-03-01T18:56:19.177Z,2.70
2023-03-01T18:58:45.647Z,2.52
2023-03-01T19:01:21.042Z,2.51
2023-03-01T19:03:48.032Z,2.46
2023-03-01T19:06:15.286Z,2.76
2023-03-01T19:08:43.634Z,2.90
2023-03-01T19:11:17.981Z,2.66
2023-03-01T19:13:46.254Z,2.41
2023-03-01T19:16:17.761Z,2.51
2023-03-01T19:18:49.705Z,2.41
2023-03-01T19:21:19.231Z,2.19
2023-03-01T19:23:48.131Z,2.18
2023-03-01T19:26:18.437Z,2.26
2023-03-01T19:28:45.906Z,2.39
2023-03-01T19:31:15.539Z,2.43
2023-03-01T19:33:42.844Z,2.57
2023-03-01T19:36:12.187Z,2.71
2023-03-01T19:38:40.645Z,2.45
2023-03-01T19:41:17.234Z,2.55
2023-03-01T19:43:45.391Z,2.67
2023-03-01T19:46:13.032Z,2.88
2023-03-01T19:48:39.888Z,2.65
2023-03-01T19:51:08.374Z,2.80
2023-03-01T19:53:36.391Z,2.75
2023-03-01T19:56:03.800Z,2.46
2023-03-01T19:58:31.666Z,2.67
2023-03-01T20:01:00.068Z,2.47
2023-03-01T20:03:35.168Z,2.51
2023-03-01T20:06:10.593Z,2.41
2023-03-01T20:08:37.126Z,2.39
2023-03-01T20:11:06.679Z,2.40
2023-03-01T20:13:35.009Z,2.29
2023-03-01T20:16:02.643Z,2.24
2023-03-01T20:18:29.811Z,2.27
2023-03-01T20:20:58.507Z,2.12
2023-03-01T20:23:28.857Z,2.28
2023-03-01T20:26:14.493Z,2.03
2023-03-01T20:28:42.976Z,2.12
2023-03-01T20:31:11.638Z,2.39
2023-03-01T20:33:38.541Z,2.23
2023-03-01T20:36:07.317Z,2.25
2023-03-01T20:38:34.410Z,2.35
2023-03-01T20:41:04.668Z,2.32
2023-03-01T20:43:31.763Z,2.36
2023-03-01T20:46:02.091Z,2.11
2023-03-01T20:48:28.527Z,2.19
2023-03-01T20:50:56.117Z,2.10
2023-03-01T20:53:22.901Z,2.12
2023-03-01T20:55:50.025Z,1.95
2023-03-01T20:58:16.471Z,2.09
2023-03-01T21:00:43.350Z,2.08
2023-03-01T21:03:10.141Z,1.81
2023-03-01T21:05:37.174Z,1.61
2023-03-01T21:08:04.060Z,1.42
2023-03-01T21:10:32.897Z,1.36
2023-03-01T21:12:59.418Z,1.30
2023-03-01T21:15:29.435Z,1.49
2023-03-01T21:17:56.188Z,1.41
2023-03-01T21:20:24.302Z,1.42
2023-03-01T21:22:53.646Z,1.49
2023-03-01T21:25:22.478Z,1.51
2023-03-01T21:27:48.848Z,1.61
2023-03-01T21:30:15.758Z,1.75
2023-03-01T21:32:42.386Z,1.70
2023-03-01T21:35:09.289Z,1.83
2023-03-01T21:37:35.689Z,1.59
2023-03-01T21:40:04.078Z,1.48
2023-03-01T21:42:32.605Z,1.45
2023-03-01T21:44:59.301Z,1.64
2023-03-01T21:47:25.592Z,1.82
2023-03-01T21:49:52.345Z,1.86
2023-03-01T21:52:18.559Z,1.98
2023-03-01T21:54:45.400Z,1.98
2023-03-01T21:57:12.038Z,2.15
2023-03-01T21:59:38.815Z,2.14
2023-03-01T22:02:05.415Z,2.07
2023-03-01T22:04:32.355Z,2.20
2023-03-01T22:06:58.845Z,2.14
2023-03-01T22:09:25.903Z,1.85
2023-03-01T22:11:58.194Z,1.62
2023-03-01T22:14:25.856Z,1.45
2023-03-01T22:16:52.919Z,1.60
2023-03-01T22:19:21.244Z,1.46
2023-03-01T22:21:50.571Z,1.27
2023-03-01T22:24:19.255Z,1.23
2023-03-01T22:26:47.875Z,1.15
2023-03-01T22:29:24.352Z,1.05
2023-03-01T22:31:52.645Z,1.18
2023-03-01T22:34:20.810Z,1.15
2023-03-01T22:36:47.980Z,1.33
2023-03-01T22:39:16.353Z,1.07
2023-03-01T22:41:45.613Z,1.31
2023-03-01T22:44:18.005Z,1.45
2023-03-01T22:46:45.534Z,1.63
2023-03-01T22:49:12.572Z,1.49
2023-03-01T22:51:40.794Z,1.21
2023-03-01T22:54:08.166Z,1.17
2023-03-01T22:56:36.795Z,0.98
2023-03-01T22:59:08.892Z,1.09
2023-03-01T23:01:37.051Z,1.24
2023-03-01T23:04:04.117Z,1.16
2023-03-01T23:06:31.518Z,1.02
2023-03-01T23:09:00.673Z,0.87
2023-03-01T23:11:28.753Z,0.83
2023-03-01T23:13:55.530Z,1.25
2023-03-01T23:16:25.509Z,1.17
2023-03-01T23:18:53.786Z,1.02
2023-03-01T23:21:20.284Z,1.18
2023-03-01T23:23:46.699Z,1.15
2023-03-01T23:26:14.403Z,0.96
2023-03-01T23:28:41.232Z,1.22
2023-03-01T23:31:10.953Z,1.13
2023-03-01T23:33:37.317Z,1.34
2023-03-01T23:36:06.303Z,1.18
2023-03-01T23:38:32.862Z,1.15
2023-03-01T23:40:59.688Z,1.07
2023-03-01T23:43:26.230Z,1.19
2023-03-01T23:45:53.865Z,1.16
2023-03-01T23:48:20.395Z,1.17
2023-03-01T23:50:47.595Z,1.33
2023-03-01T23:53:17.156Z,1.38
2023-03-01T23:55:46.778Z,1.40
2023-03-01T23:58:13.220Z,1.08
